Time;durP1;ratioP1;P1;durP2;ratioP2;P2;SDS_P1;SDS_P2;PMS_P1;PMS_P2;Temp;Humidity;BMP_temperature;BMP_pressure;BME280_temperature;BME280_humidity;BME280_pressure;Samples;Min_cycle;Max_cycle;Signal;HPM_P1;HPM_P2
2023/05/28 00:00:26;;;;;;;14.82;6.25;;;;;;;;;;5015336;28;20052;-84
2023/05/28 00:02:53;;;;;;;16.73;7.57;;;;;;;;;;5012249;28;20069;-85
2023/05/28 00:05:20;;;;;;;17.88;7.20;;;;;;;;;;4991119;28;20041;-83
2023/05/28 00:07:47;;;;;;;20.55;7.20;;;;;;;;;;5009766;28;20046;-81
2023/05/28 00:10:14;;;;;;;14.25;6.40;;;;;;;;;;4996952;28;20053;-85
2023/05/28 00:12:40;;;;;;;16.25;7.20;;;;;;;;;;5011825;28;20038;-83
2023/05/28 00:15:07;;;;;;;13.55;6.78;;;;;;;;;;5010889;28;20121;-83
2023/05/28 00:17:34;;;;;;;12.77;6.30;;;;;;;;;;4997028;28;20053;-81
2023/05/28 00:20:01;;;;;;;13.05;6.78;;;;;;;;;;5014973;28;20089;-85
2023/05/28 00:22:28;;;;;;;11.70;5.80;;;;;;;;;;5012028;28;20449;-86
2023/05/28 00:24:55;;;;;;;13.30;5.70;;;;;;;;;;4996724;28;20053;-86
2023/05/28 00:27:23;;;;;;;12.63;5.78;;;;;;;;;;5018548;28;20033;-84
2023/05/28 00:29:50;;;;;;;12.07;6.13;;;;;;;;;;4994887;28;20181;-84
2023/05/28 00:32:16;;;;;;;14.55;6.00;;;;;;;;;;4993652;28;20076;-84
2023/05/28 00:34:43;;;;;;;14.13;5.90;;;;;;;;;;4994864;28;20038;-82
2023/05/28 00:37:10;;;;;;;12.02;5.78;;;;;;;;;;5011017;28;20042;-84
2023/05/28 00:39:36;;;;;;;12.38;5.72;;;;;;;;;;4994910;28;20050;-83
2023/05/28 00:42:04;;;;;;;14.43;6.75;;;;;;;;;;5013270;28;20422;-86
2023/05/28 00:44:34;;;;;;;14.45;5.90;;;;;;;;;;4996301;28;20518;-84
2023/05/28 00:47:01;;;;;;;12.75;6.25;;;;;;;;;;5000226;28;20081;-84
2023/05/28 00:49:28;;;;;;;10.85;5.57;;;;;;;;;;5021983;28;20041;-83
2023/05/28 00:51:56;;;;;;;16.45;6.75;;;;;;;;;;5013042;28;20216;-83
2023/05/28 00:54:23;;;;;;;13.68;6.38;;;;;;;;;;5008973;28;20054;-84
2023/05/28 00:56:51;;;;;;;15.32;7.05;;;;;;;;;;4994419;28;20471;-85
2023/05/28 00:59:17;;;;;;;17.13;7.47;;;;;;;;;;5010761;28;20416;-84
2023/05/28 01:01:44;;;;;;;18.48;7.43;;;;;;;;;;4993813;28;20049;-83
2023/05/28 01:04:11;;;;;;;17.35;7.70;;;;;;;;;;5009342;28;20104;-84
2023/05/28 01:06:39;;;;;;;16.23;7.80;;;;;;;;;;5017699;28;20065;-84
2023/05/28 01:09:06;;;;;;;16.05;7.28;;;;;;;;;;5009529;28;20072;-84
2023/05/28 01:11:34;;;;;;;17.20;6.97;;;;;;;;;;5008215;28;20050;-83
2023/05/28 01:14:02;;;;;;;14.05;6.88;;;;;;;;;;5008490;28;20279;-83
2023/05/28 01:16:29;;;;;;;12.77;6.63;;;;;;;;;;5011512;28;20178;-85
2023/05/28 01:18:56;;;;;;;12.70;6.00;;;;;;;;;;5009185;28;20125;-85
2023/05/28 01:21:24;;;;;;;12.20;6.40;;;;;;;;;;5008976;28;20042;-84
2023/05/28 01:23:52;;;;;;;11.25;6.03;;;;;;;;;;5009414;28;20642;-84
2023/05/28 01:26:19;;;;;;;11.32;6.22;;;;;;;;;;5010549;28;20536;-84
2023/05/28 01:28:46;;;;;;;12.23;6.28;;;;;;;;;;5009927;28;20037;-81
2023/05/28 01:31:15;;;;;;;14.80;6.68;;;;;;;;;;4994661;28;20038;-83
2023/05/28 01:33:42;;;;;;;13.02;7.18;;;;;;;;;;5010183;28;20053;-81
2023/05/28 01:36:25;;;;;;;14.60;7.00;;;;;;;;;;5021490;28;20057;-82
2023/05/28 01:38:58;;;;;;;17.15;6.63;;;;;;;;;;5026403;28;20050;-83
2023/05/28 01:41:29;;;;;;;14.85;6.65;;;;;;;;;;5029067;28;20103;-84
2023/05/28 01:43:57;;;;;;;15.00;6.72;;;;;;;;;;5029302;28;20509;-84
2023/05/28 01:46:25;;;;;;;18.00;6.78;;;;;;;;;;5030096;28;20453;-82
2023/05/28 01:48:53;;;;;;;17.48;7.78;;;;;;;;;;5030264;28;20049;-85
2023/05/28 01:51:23;;;;;;;17.52;6.45;;;;;;;;;;5011706;28;20128;-83
2023/05/28 01:53:50;;;;;;;15.25;6.97;;;;;;;;;;5029698;28;20053;-84
2023/05/28 01:56:17;;;;;;;13.52;7.05;;;;;;;;;;5031132;28;20087;-84
2023/05/28 01:58:44;;;;;;;12.02;6.53;;;;;;;;;;5029650;28;20049;-84
2023/05/28 02:01:30;;;;;;;17.05;7.18;;;;;;;;;;5011513;28;20060;-83
2023/05/28 02:03:59;;;;;;;18.52;7.60;;;;;;;;;;5027082;28;20099;-83
2023/05/28 02:06:30;;;;;;;14.20;6.90;;;;;;;;;;5021206;28;20052;-83
2023/05/28 02:08:57;;;;;;;14.75;7.13;;;;;;;;;;5009371;28;20119;-82
2023/05/28 02:11:25;;;;;;;18.05;6.63;;;;;;;;;;5008296;28;20340;-83
2023/05/28 02:13:54;;;;;;;16.00;6.95;;;;;;;;;;5028213;28;20193;-84
2023/05/28 02:16:22;;;;;;;13.77;6.57;;;;;;;;;;5034316;28;20052;-85
2023/05/28 02:18:55;;;;;;;13.25;6.93;;;;;;;;;;5029981;28;20452;-83
2023/05/28 02:21:23;;;;;;;18.20;7.43;;;;;;;;;;5028813;28;20037;-84
2023/05/28 02:23:49;;;;;;;14.80;6.35;;;;;;;;;;5030172;28;20095;-84
2023/05/28 02:26:17;;;;;;;13.70;6.80;;;;;;;;;;5036755;28;20053;-83
2023/05/28 02:28:44;;;;;;;17.10;6.82;;;;;;;;;;5038785;28;20038;-87
2023/05/28 02:31:11;;;;;;;20.00;7.32;;;;;;;;;;5012543;28;20137;-84
2023/05/28 02:33:41;;;;;;;18.65;6.93;;;;;;;;;;5028672;28;20400;-85
2023/05/28 02:36:11;;;;;;;15.43;6.65;;;;;;;;;;5045405;28;20053;-83
2023/05/28 02:38:38;;;;;;;13.40;7.35;;;;;;;;;;5048894;28;20045;-81
2023/05/28 02:41:05;;;;;;;15.00;7.07;;;;;;;;;;5047391;28;20141;-81
2023/05/28 02:43:33;;;;;;;13.02;7.25;;;;;;;;;;4999925;28;20472;-84
2023/05/28 02:46:02;;;;;;;13.32;6.85;;;;;;;;;;4976145;28;20597;-87
2023/05/28 02:48:34;;;;;;;12.07;6.72;;;;;;;;;;4998511;28;20054;-85
2023/05/28 02:51:02;;;;;;;18.58;7.53;;;;;;;;;;4999223;28;20400;-83
2023/05/28 02:53:31;;;;;;;17.20;6.57;;;;;;;;;;4999054;28;20050;-85
2023/05/28 02:55:58;;;;;;;13.73;6.65;;;;;;;;;;4993903;28;20415;-86
2023/05/28 02:58:25;;;;;;;13.00;6.78;;;;;;;;;;4992786;28;20478;-85
2023/05/28 03:00:52;;;;;;;14.98;6.80;;;;;;;;;;4974386;28;20050;-82
2023/05/28 03:03:19;;;;;;;14.23;7.20;;;;;;;;;;4990146;28;20073;-86
2023/05/28 03:05:46;;;;;;;15.45;7.20;;;;;;;;;;4979590;28;20043;-83
2023/05/28 03:08:13;;;;;;;15.88;6.90;;;;;;;;;;5009285;28;20466;-86
2023/05/28 03:10:40;;;;;;;16.85;6.68;;;;;;;;;;5010841;28;20069;-84
2023/05/28 03:13:08;;;;;;;14.13;6.22;;;;;;;;;;4996398;28;20038;-84
2023/05/28 03:15:35;;;;;;;11.20;6.03;;;;;;;;;;5013973;28;20052;-83
2023/05/28 03:18:01;;;;;;;13.70;6.22;;;;;;;;;;5009836;28;20061;-86
2023/05/28 03:20:32;;;;;;;12.18;6.10;;;;;;;;;;4993990;28;21485;-83
2023/05/28 03:22:59;;;;;;;15.43;6.25;;;;;;;;;;4992820;28;20134;-82
2023/05/28 03:25:26;;;;;;;16.75;6.25;;;;;;;;;;4993206;28;20386;-84
2023/05/28 03:27:53;;;;;;;18.38;6.75;;;;;;;;;;5009294;28;20072;-85
2023/05/28 03:30:24;;;;;;;18.42;7.43;;;;;;;;;;4992402;28;20046;-83
2023/05/28 03:32:53;;;;;;;13.15;6.75;;;;;;;;;;4991467;28;20342;-83
2023/05/28 03:35:21;;;;;;;16.63;6.68;;;;;;;;;;4991613;28;20398;-84
2023/05/28 03:37:47;;;;;;;17.33;7.18;;;;;;;;;;4993613;28;20042;-84
2023/05/28 03:40:15;;;;;;;14.90;7.20;;;;;;;;;;4994261;28;20042;-83
2023/05/28 03:42:42;;;;;;;15.48;6.18;;;;;;;;;;4992862;28;20409;-85
2023/05/28 03:45:09;;;;;;;13.25;6.35;;;;;;;;;;4992836;28;20042;-82
2023/05/28 03:47:36;;;;;;;17.77;7.55;;;;;;;;;;4992562;28;20577;-83
2023/05/28 03:50:04;;;;;;;19.00;7.60;;;;;;;;;;5007763;28;20050;-82
2023/05/28 03:52:31;;;;;;;14.15;7.07;;;;;;;;;;5006189;28;20061;-83
2023/05/28 03:54:59;;;;;;;14.77;7.43;;;;;;;;;;4992037;28;20125;-84
2023/05/28 03:57:26;;;;;;;18.83;6.95;;;;;;;;;;5007784;28;20043;-82
2023/05/28 03:59:56;;;;;;;15.27;7.20;;;;;;;;;;4992838;28;20442;-84
2023/05/28 04:02:23;;;;;;;13.73;6.38;;;;;;;;;;5002933;28;20066;-84
2023/05/28 04:04:51;;;;;;;17.23;6.55;;;;;;;;;;5013056;28;20042;-83
2023/05/28 04:07:18;;;;;;;16.15;6.45;;;;;;;;;;4996313;28;20073;-83
2023/05/28 04:09:44;;;;;;;14.52;6.72;;;;;;;;;;4995287;28;20046;-86
2023/05/28 04:12:12;;;;;;;15.75;6.80;;;;;;;;;;5007999;28;20129;-84
2023/05/28 04:14:40;;;;;;;16.17;7.22;;;;;;;;;;4999997;28;20041;-85
2023/05/28 04:17:07;;;;;;;13.52;6.57;;;;;;;;;;5015100;28;20048;-86
2023/05/28 04:19:34;;;;;;;15.15;6.50;;;;;;;;;;5029281;28;20464;-83
2023/05/28 04:22:01;;;;;;;16.65;6.70;;;;;;;;;;5013174;28;20042;-86
2023/05/28 04:24:28;;;;;;;19.33;7.18;;;;;;;;;;5042693;28;20045;-81
2023/05/28 04:26:56;;;;;;;11.15;6.30;;;;;;;;;;5034824;28;20509;-82
2023/05/28 04:29:24;;;;;;;18.75;6.40;;;;;;;;;;5031420;28;20049;-82
2023/05/28 04:31:51;;;;;;;14.65;6.60;;;;;;;;;;5013541;28;20064;-81
2023/05/28 04:34:18;;;;;;;12.93;6.22;;;;;;;;;;5029993;28;20045;-84
2023/05/28 04:36:45;;;;;;;14.20;6.55;;;;;;;;;;5011383;28;20636;-83
2023/05/28 04:39:11;;;;;;;15.77;7.13;;;;;;;;;;5029469;28;20041;-84
2023/05/28 04:41:38;;;;;;;13.90;7.03;;;;;;;;;;5010522;28;20077;-84
2023/05/28 04:44:06;;;;;;;14.20;6.57;;;;;;;;;;5034341;28;20393;-82
2023/05/28 04:46:33;;;;;;;18.83;7.10;;;;;;;;;;5031360;28;20050;-81
2023/05/28 04:49:01;;;;;;;18.52;7.60;;;;;;;;;;5029207;28;20061;-81
2023/05/28 04:51:28;;;;;;;15.20;6.57;;;;;;;;;;5029029;28;20064;-83
2023/05/28 04:53:54;;;;;;;16.02;6.72;;;;;;;;;;5037117;28;20057;-83
2023/05/28 04:56:22;;;;;;;13.95;7.28;;;;;;;;;;5036143;28;20038;-84
2023/05/28 04:58:48;;;;;;;16.20;7.43;;;;;;;;;;5033120;28;20037;-84
2023/05/28 05:01:16;;;;;;;19.60;7.00;;;;;;;;;;5014449;28;20061;-81
2023/05/28 05:03:43;;;;;;;18.77;8.00;;;;;;;;;;5031403;28;20426;-83
2023/05/28 05:06:11;;;;;;;20.30;7.30;;;;;;;;;;5025855;28;20097;-83
2023/05/28 05:08:37;;;;;;;20.13;7.20;;;;;;;;;;5011118;28;20107;-85
2023/05/28 05:11:06;;;;;;;23.35;8.13;;;;;;;;;;5008554;28;20116;-82
2023/05/28 05:13:33;;;;;;;16.33;6.93;;;;;;;;;;5009292;28;20449;-83
2023/05/28 05:15:59;;;;;;;15.73;6.93;;;;;;;;;;5009265;28;20513;-84
2023/05/28 05:18:26;;;;;;;19.00;7.05;;;;;;;;;;5007921;28;20038;-83
2023/05/28 05:20:53;;;;;;;18.63;7.53;;;;;;;;;;5006939;28;20042;-84
2023/05/28 05:23:19;;;;;;;21.20;7.18;;;;;;;;;;5027377;28;20049;-83
2023/05/28 05:25:47;;;;;;;20.08;7.50;;;;;;;;;;5026886;28;20063;-84
2023/05/28 05:28:14;;;;;;;18.17;7.35;;;;;;;;;;5025612;28;20057;-84
2023/05/28 05:30:40;;;;;;;24.27;7.75;;;;;;;;;;4998994;28;20363;-84
2023/05/28 05:33:07;;;;;;;17.63;7.32;;;;;;;;;;4997269;28;20135;-83
2023/05/28 05:35:51;;;;;;;14.20;6.30;;;;;;;;;;4988749;28;20045;-84
2023/05/28 05:38:53;;;;;;;14.57;6.10;;;;;;;;;;4975332;28;20058;-82
2023/05/28 05:41:44;;;;;;;20.35;7.60;;;;;;;;;;5006162;28;20679;-83
2023/05/28 05:44:16;;;;;;;16.10;6.10;;;;;;;;;;4993328;28;20164;-80
2023/05/28 05:46:42;;;;;;;15.48;6.43;;;;;;;;;;5016660;28;20042;-84
2023/05/28 05:49:09;;;;;;;21.65;7.65;;;;;;;;;;4988747;28;20645;-85
2023/05/28 05:51:36;;;;;;;19.98;6.72;;;;;;;;;;5004926;28;20038;-83
2023/05/28 05:54:03;;;;;;;20.88;7.57;;;;;;;;;;4991920;28;20046;-85
2023/05/28 05:56:29;;;;;;;15.07;6.68;;;;;;;;;;5001579;28;20357;-85
2023/05/28 05:58:57;;;;;;;17.25;7.30;;;;;;;;;;4988985;28;20133;-84
2023/05/28 06:01:23;;;;;;;11.90;6.10;;;;;;;;;;5001377;28;20048;-85
2023/05/28 06:03:51;;;;;;;15.38;6.22;;;;;;;;;;5003292;28;20049;-86
2023/05/28 06:06:38;;;;;;;16.30;6.40;;;;;;;;;;5005565;28;20069;-85
2023/05/28 06:09:28;;;;;;;12.15;5.28;;;;;;;;;;5004723;28;20050;-84
2023/05/28 06:12:01;;;;;;;14.70;5.75;;;;;;;;;;4995092;28;20120;-85
2023/05/28 06:14:28;;;;;;;16.75;5.43;;;;;;;;;;4992441;28;20121;-82
2023/05/28 06:16:55;;;;;;;15.02;5.55;;;;;;;;;;5004965;28;20462;-84
2023/05/28 06:19:22;;;;;;;13.50;5.65;;;;;;;;;;4988514;28;20046;-83
2023/05/28 06:21:50;;;;;;;12.60;5.50;;;;;;;;;;5004287;28;20608;-82
2023/05/28 06:24:17;;;;;;;14.98;5.75;;;;;;;;;;4989026;28;20042;-81
2023/05/28 06:26:45;;;;;;;14.05;5.72;;;;;;;;;;4999699;28;20132;-81
2023/05/28 06:29:11;;;;;;;16.88;5.25;;;;;;;;;;5006461;28;20454;-86
2023/05/28 06:31:40;;;;;;;16.75;5.03;;;;;;;;;;5005834;28;20105;-82
2023/05/28 06:34:06;;;;;;;20.70;5.88;;;;;;;;;;5010549;28;20505;-87
2023/05/28 06:36:35;;;;;;;16.27;5.35;;;;;;;;;;4991012;28;20054;-82
2023/05/28 06:39:04;;;;;;;16.77;5.47;;;;;;;;;;5005997;28;20080;-81
2023/05/28 06:41:31;;;;;;;14.45;5.20;;;;;;;;;;4986190;28;20347;-83
2023/05/28 06:43:59;;;;;;;18.77;5.45;;;;;;;;;;4990893;28;20477;-83
2023/05/28 06:46:35;;;;;;;14.10;4.97;;;;;;;;;;5006510;28;20042;-83
2023/05/28 06:49:02;;;;;;;18.58;5.03;;;;;;;;;;4990743;28;20122;-83
2023/05/28 06:51:30;;;;;;;15.23;4.70;;;;;;;;;;5005162;28;20068;-83
2023/05/28 06:53:56;;;;;;;14.43;4.32;;;;;;;;;;5007322;28;20326;-83
2023/05/28 06:56:26;;;;;;;14.45;4.55;;;;;;;;;;4988089;28;20102;-83
2023/05/28 06:59:12;;;;;;;11.75;4.78;;;;;;;;;;5009501;28;20395;-80
2023/05/28 07:01:59;;;;;;;15.77;5.18;;;;;;;;;;5003970;28;20045;-83
2023/05/28 07:04:35;;;;;;;18.08;4.95;;;;;;;;;;4989914;28;20136;-85
2023/05/28 07:07:10;;;;;;;14.25;4.97;;;;;;;;;;5004254;28;20104;-82
2023/05/28 07:09:38;;;;;;;17.50;5.03;;;;;;;;;;5005067;28;20125;-81
2023/05/28 07:12:05;;;;;;;14.55;5.35;;;;;;;;;;5003139;28;20127;-83
2023/05/28 07:14:34;;;;;;;12.15;5.05;;;;;;;;;;5009401;28;20117;-82
2023/05/28 07:17:01;;;;;;;16.08;4.97;;;;;;;;;;5030965;28;20405;-79
2023/05/28 07:19:28;;;;;;;12.45;5.50;;;;;;;;;;5043753;28;20412;-84
2023/05/28 07:21:54;;;;;;;14.82;5.15;;;;;;;;;;5014513;28;20049;-85
2023/05/28 07:24:21;;;;;;;17.65;5.45;;;;;;;;;;5031367;28;20148;-84
2023/05/28 07:26:48;;;;;;;17.00;5.07;;;;;;;;;;5028689;28;20045;-84
2023/05/28 07:29:18;;;;;;;12.65;4.57;;;;;;;;;;5030839;28;20038;-83
2023/05/28 07:31:45;;;;;;;13.07;4.75;;;;;;;;;;5031258;28;20041;-84
2023/05/28 07:34:12;;;;;;;12.80;4.72;;;;;;;;;;5031477;28;20103;-81
2023/05/28 07:36:41;;;;;;;13.98;4.47;;;;;;;;;;5029118;28;20041;-85
2023/05/28 07:39:09;;;;;;;9.88;3.60;;;;;;;;;;5031255;28;20038;-83
2023/05/28 07:41:37;;;;;;;12.45;4.22;;;;;;;;;;5010165;28;20052;-83
2023/05/28 07:44:11;;;;;;;11.25;4.63;;;;;;;;;;5030429;28;20048;-84
2023/05/28 07:46:38;;;;;;;9.35;3.83;;;;;;;;;;5029518;28;20286;-82
2023/05/28 07:49:12;;;;;;;18.10;4.10;;;;;;;;;;5027955;28;20656;-86
2023/05/28 07:51:41;;;;;;;13.02;4.50;;;;;;;;;;5027029;28;20044;-81
2023/05/28 07:54:17;;;;;;;14.43;3.90;;;;;;;;;;5028924;28;20064;-84
2023/05/28 07:56:45;;;;;;;10.05;3.97;;;;;;;;;;5025970;28;20120;-82
2023/05/28 07:59:18;;;;;;;12.40;3.88;;;;;;;;;;5030362;28;20064;-82
2023/05/28 08:01:45;;;;;;;11.32;3.92;;;;;;;;;;5029209;28;20132;-83
2023/05/28 08:04:12;;;;;;;10.70;4.00;;;;;;;;;;5030696;28;20056;-85
2023/05/28 08:06:39;;;;;;;11.63;4.05;;;;;;;;;;5001800;28;20100;-84
2023/05/28 08:09:10;;;;;;;10.93;4.47;;;;;;;;;;5021085;28;20042;-82
2023/05/28 08:11:38;;;;;;;9.25;3.60;;;;;;;;;;4989527;28;20539;-84
2023/05/28 08:14:06;;;;;;;10.18;3.22;;;;;;;;;;5009208;28;20141;-84
2023/05/28 08:16:33;;;;;;;15.13;3.80;;;;;;;;;;4995582;28;20066;-81
2023/05/28 08:19:15;;;;;;;11.38;3.65;;;;;;;;;;4990235;28;20046;-81
2023/05/28 08:21:43;;;;;;;13.30;3.22;;;;;;;;;;4988513;28;20124;-85
2023/05/28 08:24:10;;;;;;;11.48;3.45;;;;;;;;;;4973553;28;20046;-82
2023/05/28 08:26:39;;;;;;;11.57;3.80;;;;;;;;;;4987413;28;20054;-82
2023/05/28 08:29:06;;;;;;;13.07;3.80;;;;;;;;;;4974197;28;20050;-83
2023/05/28 08:31:37;;;;;;;12.02;3.33;;;;;;;;;;4990066;28;20045;-82
2023/05/28 08:34:10;;;;;;;9.95;3.30;;;;;;;;;;4974439;28;20108;-82
2023/05/28 08:36:37;;;;;;;10.35;3.58;;;;;;;;;;4990982;28;20042;-83
2023/05/28 08:39:08;;;;;;;11.90;3.55;;;;;;;;;;5008159;28;20089;-82
2023/05/28 08:41:37;;;;;;;10.95;3.30;;;;;;;;;;5003361;28;20053;-84
2023/05/28 08:44:04;;;;;;;13.63;3.60;;;;;;;;;;4993515;28;20076;-84
2023/05/28 08:46:31;;;;;;;11.82;3.78;;;;;;;;;;4977776;28;20046;-86
2023/05/28 08:49:18;;;;;;;8.25;3.33;;;;;;;;;;4977925;28;20502;-83
2023/05/28 08:51:48;;;;;;;10.88;3.15;;;;;;;;;;4990453;28;20515;-86
2023/05/28 08:54:17;;;;;;;11.93;3.30;;;;;;;;;;5008609;28;20125;-83
2023/05/28 08:56:43;;;;;;;8.75;3.00;;;;;;;;;;4990810;28;20038;-86
2023/05/28 08:59:10;;;;;;;8.57;3.20;;;;;;;;;;4975352;28;20050;-84
2023/05/28 09:01:38;;;;;;;8.85;3.13;;;;;;;;;;4990320;28;20045;-84
2023/05/28 09:04:07;;;;;;;12.13;2.85;;;;;;;;;;4991101;28;20042;-84
2023/05/28 09:06:45;;;;;;;8.95;2.88;;;;;;;;;;4993080;28;20141;-84
2023/05/28 09:09:35;;;;;;;10.57;3.00;;;;;;;;;;5009160;28;20200;-84
2023/05/28 09:12:05;;;;;;;9.52;3.17;;;;;;;;;;5006655;28;20505;-85
2023/05/28 09:14:37;;;;;;;9.75;2.97;;;;;;;;;;5011312;28;20042;-85
2023/05/28 09:17:03;;;;;;;6.00;2.80;;;;;;;;;;5011159;28;20046;-83
2023/05/28 09:19:31;;;;;;;9.75;2.85;;;;;;;;;;5009775;28;20068;-83
2023/05/28 09:22:01;;;;;;;10.75;3.30;;;;;;;;;;4991018;28;20069;-83
2023/05/28 09:24:33;;;;;;;6.45;2.65;;;;;;;;;;5010886;28;20049;-83
2023/05/28 09:27:23;;;;;;;11.75;2.83;;;;;;;;;;5005882;28;20042;-84
2023/05/28 09:29:51;;;;;;;9.05;3.05;;;;;;;;;;4993650;28;20113;-84
2023/05/28 09:32:22;;;;;;;8.88;2.90;;;;;;;;;;5009038;28;20104;-86
2023/05/28 09:34:50;;;;;;;8.23;2.90;;;;;;;;;;5009443;28;20045;-83
2023/05/28 09:37:17;;;;;;;11.55;2.80;;;;;;;;;;4991906;28;20050;-84
2023/05/28 09:39:44;;;;;;;12.45;2.92;;;;;;;;;;5008791;28;20042;-84
2023/05/28 09:42:11;;;;;;;9.98;3.00;;;;;;;;;;5014090;28;20049;-82
2023/05/28 09:44:39;;;;;;;8.48;3.00;;;;;;;;;;5021192;28;20073;-83
2023/05/28 09:47:13;;;;;;;9.85;2.72;;;;;;;;;;4995425;28;20455;-86
2023/05/28 09:49:41;;;;;;;9.57;2.90;;;;;;;;;;5011546;28;20057;-83
2023/05/28 09:52:08;;;;;;;11.80;3.35;;;;;;;;;;5009876;28;20383;-83
2023/05/28 09:54:36;;;;;;;6.72;2.95;;;;;;;;;;5010611;28;20050;-85
2023/05/28 09:57:03;;;;;;;9.52;2.88;;;;;;;;;;4999132;28;20046;-83
2023/05/28 09:59:31;;;;;;;12.68;2.90;;;;;;;;;;5009324;28;20141;-83
2023/05/28 10:02:18;;;;;;;7.38;2.80;;;;;;;;;;5007977;28;20081;-80
2023/05/28 10:04:46;;;;;;;10.05;2.80;;;;;;;;;;5009916;28;20076;-83
2023/05/28 10:07:13;;;;;;;6.70;2.67;;;;;;;;;;5007922;28;20100;-82
2023/05/28 10:09:40;;;;;;;12.35;3.10;;;;;;;;;;4992120;28;20042;-83
2023/05/28 10:12:06;;;;;;;7.03;3.10;;;;;;;;;;4988927;28;20268;-82
2023/05/28 10:14:33;;;;;;;8.65;2.90;;;;;;;;;;4993311;28;20104;-82
2023/05/28 10:17:00;;;;;;;6.95;2.65;;;;;;;;;;4993317;28;20050;-84
2023/05/28 10:19:28;;;;;;;6.72;2.70;;;;;;;;;;4990892;28;20073;-82
2023/05/28 10:21:55;;;;;;;6.70;2.50;;;;;;;;;;4989901;28;20069;-81
2023/05/28 10:24:22;;;;;;;8.77;2.58;;;;;;;;;;5008680;28;20049;-83
2023/05/28 10:26:49;;;;;;;7.25;2.90;;;;;;;;;;5004944;28;20045;-84
2023/05/28 10:29:15;;;;;;;7.22;3.40;;;;;;;;;;5008531;28;20049;-81
2023/05/28 10:31:42;;;;;;;9.77;3.03;;;;;;;;;;5002730;28;20064;-84
2023/05/28 10:34:15;;;;;;;9.75;3.70;;;;;;;;;;5015679;28;20046;-85
2023/05/28 10:36:50;;;;;;;8.18;3.08;;;;;;;;;;5009510;28;20049;-85
2023/05/28 10:39:16;;;;;;;7.88;2.90;;;;;;;;;;4995561;28;20443;-82
2023/05/28 10:41:43;;;;;;;6.72;2.83;;;;;;;;;;5007550;28;20050;-83
2023/05/28 10:44:11;;;;;;;6.80;2.85;;;;;;;;;;5018891;28;20069;-81
2023/05/28 10:46:38;;;;;;;7.88;2.80;;;;;;;;;;5024635;28;20128;-80
2023/05/28 10:49:16;;;;;;;6.53;2.95;;;;;;;;;;5027605;28;20049;-82
2023/05/28 10:51:45;;;;;;;6.88;2.70;;;;;;;;;;5016508;28;20045;-82
2023/05/28 10:54:15;;;;;;;6.65;2.90;;;;;;;;;;5013075;28;20046;-83
2023/05/28 10:57:01;;;;;;;8.60;2.53;;;;;;;;;;5013265;28;20050;-82
2023/05/28 10:59:44;;;;;;;6.85;2.70;;;;;;;;;;5013125;28;20522;-81
2023/05/28 11:02:18;;;;;;;7.45;2.75;;;;;;;;;;5010996;28;20041;-81
2023/05/28 11:04:45;;;;;;;9.75;2.95;;;;;;;;;;4994912;28;20128;-82
2023/05/28 11:07:14;;;;;;;6.97;2.90;;;;;;;;;;5012153;28;20068;-84
2023/05/28 11:09:43;;;;;;;7.82;2.67;;;;;;;;;;4994135;28;20057;-79
2023/05/28 11:12:11;;;;;;;8.68;3.00;;;;;;;;;;5009314;28;20042;-82
2023/05/28 11:14:38;;;;;;;11.10;2.90;;;;;;;;;;5013489;28;20048;-82
2023/05/28 11:17:06;;;;;;;6.95;3.20;;;;;;;;;;5011592;28;20050;-81
2023/05/28 11:19:41;;;;;;;8.75;3.08;;;;;;;;;;5024469;28;20033;-83
2023/05/28 11:22:07;;;;;;;7.80;3.10;;;;;;;;;;5018007;28;20073;-85
2023/05/28 11:24:52;;;;;;;7.57;2.95;;;;;;;;;;4998818;28;20069;-82
2023/05/28 11:27:20;;;;;;;6.65;3.10;;;;;;;;;;5012536;28;20140;-85
2023/05/28 11:29:47;;;;;;;7.60;2.70;;;;;;;;;;4997406;28;20046;-83
2023/05/28 11:32:17;;;;;;;5.70;2.90;;;;;;;;;;5014283;28;20514;-82
2023/05/28 11:34:43;;;;;;;5.75;2.83;;;;;;;;;;5011803;28;20200;-81
2023/05/28 11:37:10;;;;;;;6.18;2.63;;;;;;;;;;5030359;28;20045;-81
2023/05/28 11:39:39;;;;;;;6.75;2.42;;;;;;;;;;5031069;28;20352;-81
2023/05/28 11:42:07;;;;;;;5.38;2.40;;;;;;;;;;5026838;28;20501;-81
2023/05/28 11:44:34;;;;;;;8.25;2.70;;;;;;;;;;5031226;28;20049;-84
2023/05/28 11:47:00;;;;;;;7.30;2.83;;;;;;;;;;5031587;28;20409;-81
2023/05/28 11:49:29;;;;;;;6.43;2.60;;;;;;;;;;5033033;28;20037;-86
2023/05/28 11:51:56;;;;;;;7.10;2.85;;;;;;;;;;5029132;28;20088;-83
2023/05/28 11:54:22;;;;;;;4.90;2.53;;;;;;;;;;5031065;28;20104;-81
2023/05/28 11:56:52;;;;;;;6.60;2.80;;;;;;;;;;5028499;28;20128;-83
2023/05/28 11:59:20;;;;;;;5.40;2.50;;;;;;;;;;5030441;28;20124;-84
2023/05/28 12:01:47;;;;;;;6.55;2.55;;;;;;;;;;5014595;28;20061;-78
2023/05/28 12:04:13;;;;;;;4.90;2.47;;;;;;;;;;5024736;28;20104;-81
2023/05/28 12:06:51;;;;;;;11.90;2.95;;;;;;;;;;4994954;28;20450;-82
2023/05/28 12:09:18;;;;;;;6.40;2.42;;;;;;;;;;5007503;28;20069;-81
2023/05/28 12:12:01;;;;;;;5.88;2.78;;;;;;;;;;5005570;28;20048;-72
2023/05/28 12:14:31;;;;;;;6.45;2.63;;;;;;;;;;5008062;28;20045;-72
2023/05/28 12:17:03;;;;;;;5.70;2.58;;;;;;;;;;4993400;28;20042;-71
2023/05/28 12:19:33;;;;;;;5.65;2.92;;;;;;;;;;5003798;28;20411;-72
2023/05/28 12:22:00;;;;;;;7.18;2.80;;;;;;;;;;5005453;28;20046;-73
2023/05/28 12:24:27;;;;;;;6.30;2.65;;;;;;;;;;4989697;28;20038;-74
2023/05/28 12:26:54;;;;;;;12.18;3.28;;;;;;;;;;5004315;28;20526;-71
2023/05/28 12:29:20;;;;;;;6.68;2.95;;;;;;;;;;4989481;28;20112;-72
2023/05/28 12:31:47;;;;;;;8.07;2.60;;;;;;;;;;5002312;28;20042;-71
2023/05/28 12:34:14;;;;;;;7.45;2.78;;;;;;;;;;5006027;28;20046;-74
2023/05/28 12:36:40;;;;;;;9.18;2.80;;;;;;;;;;4989081;28;20053;-72
2023/05/28 12:39:07;;;;;;;6.32;2.80;;;;;;;;;;4990853;28;20062;-73
2023/05/28 12:41:34;;;;;;;4.78;2.30;;;;;;;;;;5005212;28;20062;-71
2023/05/28 12:44:00;;;;;;;4.60;2.53;;;;;;;;;;5005872;28;20513;-70
2023/05/28 12:46:27;;;;;;;4.10;2.40;;;;;;;;;;5004388;28;20046;-71
2023/05/28 12:48:53;;;;;;;4.50;2.67;;;;;;;;;;5006533;28;20034;-71
2023/05/28 12:51:20;;;;;;;6.03;2.63;;;;;;;;;;5003230;28;20148;-72
2023/05/28 12:53:47;;;;;;;5.32;2.60;;;;;;;;;;5005643;28;20137;-71
2023/05/28 12:56:13;;;;;;;6.50;2.80;;;;;;;;;;5002211;28;20067;-70
2023/05/28 12:58:40;;;;;;;6.97;2.95;;;;;;;;;;5007813;28;20473;-71
2023/05/28 13:01:07;;;;;;;4.95;2.33;;;;;;;;;;5003626;28;20069;-71
2023/05/28 13:03:34;;;;;;;9.05;2.70;;;;;;;;;;5002341;28;20201;-72
2023/05/28 13:06:01;;;;;;;18.88;2.85;;;;;;;;;;5006910;28;20053;-71
2023/05/28 13:08:28;;;;;;;8.38;3.05;;;;;;;;;;5006548;28;20042;-71
2023/05/28 13:10:55;;;;;;;6.90;2.63;;;;;;;;;;5002783;28;20124;-71
2023/05/28 13:13:22;;;;;;;7.82;2.78;;;;;;;;;;5003730;28;20045;-73
2023/05/28 13:15:48;;;;;;;7.80;2.72;;;;;;;;;;5006162;28;20045;-73
2023/05/28 13:18:15;;;;;;;5.35;2.42;;;;;;;;;;5006390;28;20446;-71
2023/05/28 13:20:44;;;;;;;6.78;2.45;;;;;;;;;;5004939;28;20042;-71
2023/05/28 13:23:11;;;;;;;5.57;2.42;;;;;;;;;;5005517;28;20152;-71
2023/05/28 13:25:38;;;;;;;5.28;2.65;;;;;;;;;;5002306;28;20678;-69
2023/05/28 13:28:07;;;;;;;6.55;2.40;;;;;;;;;;5000365;28;20045;-72
2023/05/28 13:30:34;;;;;;;7.75;2.47;;;;;;;;;;5003007;28;20088;-72
2023/05/28 13:33:00;;;;;;;6.50;2.50;;;;;;;;;;5003699;28;20529;-69
2023/05/28 13:35:27;;;;;;;6.70;2.60;;;;;;;;;;5005232;28;20069;-70
2023/05/28 13:37:55;;;;;;;6.22;2.60;;;;;;;;;;5005721;28;20057;-70
2023/05/28 13:40:23;;;;;;;9.90;2.75;;;;;;;;;;5003066;28;20046;-69
2023/05/28 13:42:49;;;;;;;9.70;2.38;;;;;;;;;;5005707;28;20050;-71
2023/05/28 13:45:19;;;;;;;5.35;2.50;;;;;;;;;;5006940;28;20062;-71
2023/05/28 13:47:45;;;;;;;4.57;2.30;;;;;;;;;;5006205;28;20042;-69
2023/05/28 13:50:12;;;;;;;11.43;2.35;;;;;;;;;;5004169;28;20046;-69
2023/05/28 13:52:39;;;;;;;6.10;2.53;;;;;;;;;;5004727;28;20518;-69
2023/05/28 13:55:05;;;;;;;4.05;2.40;;;;;;;;;;4987688;28;20136;-70
2023/05/28 13:57:32;;;;;;;11.38;2.67;;;;;;;;;;5003672;28;20077;-70
2023/05/28 14:00:05;;;;;;;5.93;2.60;;;;;;;;;;5006541;28;20081;-73
2023/05/28 14:02:35;;;;;;;4.70;2.70;;;;;;;;;;5005919;28;20042;-72
2023/05/28 14:05:02;;;;;;;7.00;2.42;;;;;;;;;;5006832;28;20115;-71
2023/05/28 14:07:29;;;;;;;8.27;2.80;;;;;;;;;;5006266;28;20133;-71
2023/05/28 14:09:55;;;;;;;5.65;2.67;;;;;;;;;;5003267;28;20070;-70
2023/05/28 14:12:22;;;;;;;5.97;2.58;;;;;;;;;;5003440;28;20049;-71
2023/05/28 14:14:48;;;;;;;4.80;2.33;;;;;;;;;;5005672;28;20100;-71
2023/05/28 14:17:15;;;;;;;5.97;2.63;;;;;;;;;;5004875;28;20041;-73
2023/05/28 14:19:41;;;;;;;7.05;2.20;;;;;;;;;;5004406;28;20144;-69
2023/05/28 14:22:10;;;;;;;4.38;2.28;;;;;;;;;;5003634;28;20414;-70
2023/05/28 14:24:36;;;;;;;6.93;2.42;;;;;;;;;;5006984;28;20140;-70
2023/05/28 14:27:03;;;;;;;6.38;2.55;;;;;;;;;;4988552;28;20053;-70
2023/05/28 14:29:30;;;;;;;5.72;2.75;;;;;;;;;;4986196;28;20518;-71
2023/05/28 14:31:56;;;;;;;7.00;2.47;;;;;;;;;;4983941;28;20054;-69
2023/05/28 14:34:23;;;;;;;6.85;2.40;;;;;;;;;;4985995;28;20049;-71
2023/05/28 14:36:50;;;;;;;14.98;2.55;;;;;;;;;;4987796;28;20108;-71
2023/05/28 14:39:16;;;;;;;8.73;2.30;;;;;;;;;;4987276;28;20042;-70
2023/05/28 14:41:43;;;;;;;5.57;2.45;;;;;;;;;;4982818;28;20042;-72
2023/05/28 14:44:10;;;;;;;4.55;2.42;;;;;;;;;;4991556;28;20058;-71